Time;durP1;ratioP1;P1;durP2;ratioP2;P2;SDS_P1;SDS_P2;PMS_P1;PMS_P2;Temp;Humidity;BMP_temperature;BMP_pressure;BME280_temperature;BME280_humidity;BME280_pressure;Samples;Min_cycle;Max_cycle;Signal;HPM_P1;HPM_P2
2024/01/17 00:01:24;;;;;;;;;77.75;53.50;;;;;3.57;53.27;99422.59;5040060;28;45279;-65
2024/01/17 00:03:50;;;;;;;;;28.00;24.33;;;;;3.57;53.27;99417.41;5012914;28;67768;-66
2024/01/17 00:06:15;;;;;;;;;33.50;23.50;;;;;3.57;53.46;99410.50;5038501;28;66208;-67
2024/01/17 00:08:41;;;;;;;;;27.00;22.50;;;;;3.59;53.65;99407.88;5037007;28;49957;-66
2024/01/17 00:11:06;;;;;;;;;31.00;16.75;;;;;3.59;53.76;99411.34;5038983;28;70393;-68
2024/01/17 00:13:31;;;;;;;;;25.67;18.33;;;;;3.58;53.68;99408.78;5004301;28;71341;-66
2024/01/17 00:15:57;;;;;;;;;24.50;17.25;;;;;3.61;53.77;99401.81;5038265;28;45632;-67
2024/01/17 00:18:22;;;;;;;;;27.00;19.00;;;;;3.62;53.71;99387.13;5039956;28;63079;-66
2024/01/17 00:20:47;;;;;;;;;71.75;51.00;;;;;3.61;53.92;99377.66;5039966;28;45392;-67
2024/01/17 00:23:13;;;;;;;;;29.75;23.50;;;;;3.61;53.96;99375.94;5037559;28;46013;-68
2024/01/17 00:25:38;;;;;;;;;20.25;16.75;;;;;3.65;54.05;99373.28;5032564;28;45201;-67
2024/01/17 00:28:04;;;;;;;;;20.25;14.25;;;;;3.67;53.94;99371.53;5018613;28;75806;-66
2024/01/17 00:30:29;;;;;;;;;21.50;19.75;;;;;3.69;54.13;99359.41;5040605;28;45433;-66
2024/01/17 00:32:54;;;;;;;;;37.50;23.25;;;;;3.71;53.99;99357.63;5023228;28;45547;-66
2024/01/17 00:35:20;;;;;;;;;25.50;18.75;;;;;3.71;54.11;99355.88;5033146;28;45546;-67
2024/01/17 00:37:45;;;;;;;;;34.33;20.67;;;;;3.68;54.26;99349.94;5015462;28;75152;-68
2024/01/17 00:40:11;;;;;;;;;22.75;22.25;;;;;3.69;54.55;99343.88;5033367;28;45529;-66
2024/01/17 00:42:36;;;;;;;;;20.00;19.75;;;;;3.68;54.72;99329.22;5039265;28;45291;-68
2024/01/17 00:45:03;;;;;;;;;35.25;22.25;;;;;3.70;54.61;99328.34;5040805;28;45327;-66
2024/01/17 00:47:29;;;;;;;;;26.25;20.25;;;;;3.73;55.08;99325.66;5016702;28;48099;-66
2024/01/17 00:49:54;;;;;;;;;30.50;22.25;;;;;3.75;54.60;99308.38;5038180;28;45287;-66
2024/01/17 00:52:19;;;;;;;;;27.00;20.00;;;;;3.74;55.11;99301.50;5027558;28;69203;-66
2024/01/17 00:54:45;;;;;;;;;28.50;20.75;;;;;3.77;55.21;99304.03;5018958;28;45484;-66
2024/01/17 00:57:10;;;;;;;;;27.25;23.50;;;;;3.77;55.29;99305.75;5015746;28;45340;-66
2024/01/17 00:59:35;;;;;;;;;23.25;20.50;;;;;3.73;55.31;99296.34;5038114;28;58552;-66
2024/01/17 01:02:02;;;;;;;;;25.75;22.25;;;;;3.71;55.60;99295.53;5014526;28;45373;-66
2024/01/17 01:04:27;;;;;;;;;30.25;20.75;;;;;3.69;55.68;99282.63;5013637;28;45472;-67
2024/01/17 01:06:53;;;;;;;;;29.25;22.00;;;;;3.70;56.03;99278.31;5005038;28;48200;-67
2024/01/17 01:09:18;;;;;;;;;22.67;17.00;;;;;3.69;56.23;99266.28;5038451;28;65253;-66
2024/01/17 01:11:43;;;;;;;;;26.00;20.00;;;;;3.67;56.11;99266.31;5030321;28;63733;-66
2024/01/17 01:14:09;;;;;;;;;26.75;23.25;;;;;3.66;56.22;99259.41;5038365;28;45431;-67
2024/01/17 01:16:34;;;;;;;;;33.00;22.75;;;;;3.66;56.72;99256.81;5032694;28;45916;-67
2024/01/17 01:18:59;;;;;;;;;31.00;23.25;;;;;3.67;56.74;99250.78;5033400;28;70605;-66
2024/01/17 01:21:25;;;;;;;;;34.50;25.00;;;;;3.68;56.84;99244.72;5037753;28;45575;-67
2024/01/17 01:23:50;;;;;;;;;31.25;25.50;;;;;3.68;56.88;99236.09;5015690;28;45518;-66
2024/01/17 01:26:16;;;;;;;;;36.00;20.00;;;;;3.67;57.09;99234.41;5035635;28;46367;-67
2024/01/17 01:28:41;;;;;;;;;24.25;21.00;;;;;3.68;57.49;99221.41;5034436;28;45482;-67
2024/01/17 01:31:06;;;;;;;;;23.50;21.50;;;;;3.67;57.37;99213.72;5030750;28;45974;-67
2024/01/17 01:33:32;;;;;;;;;33.00;20.75;;;;;3.67;57.63;99209.41;5033186;28;46072;-67
2024/01/17 01:35:57;;;;;;;;;27.00;19.00;;;;;3.67;57.69;99193.03;5035574;28;46121;-67
2024/01/17 01:38:23;;;;;;;;;34.75;24.25;;;;;3.67;57.77;99193.88;5038707;28;56895;-67
2024/01/17 01:40:48;;;;;;;;;33.67;22.00;;;;;3.69;57.85;99188.66;5030239;28;65086;-67
2024/01/17 01:43:18;;;;;;;;;23.50;21.50;;;;;3.70;58.32;99186.03;5031498;28;45258;-67
2024/01/17 01:45:46;;;;;;;;;26.00;22.25;;;;;3.69;58.31;99180.91;5021169;28;47408;-67
2024/01/17 01:48:11;;;;;;;;;26.00;22.00;;;;;3.71;58.52;99176.53;5019406;28;45464;-66
2024/01/17 01:50:37;;;;;;;;;31.50;24.25;;;;;3.73;58.62;99172.16;5021340;28;45475;-67
2024/01/17 01:53:03;;;;;;;;;40.00;23.75;;;;;3.72;58.52;99168.75;5018553;28;45597;-66
2024/01/17 01:55:28;;;;;;;;;29.50;23.50;;;;;3.74;58.81;99164.38;5026293;28;45448;-67
2024/01/17 01:57:53;;;;;;;;;33.00;23.00;;;;;3.75;58.77;99152.28;4997449;28;74249;-66
2024/01/17 02:00:19;;;;;;;;;27.50;24.00;;;;;3.75;58.87;99142.81;5034770;28;65554;-66
2024/01/17 02:02:45;;;;;;;;;27.25;21.25;;;;;3.76;58.77;99146.22;5020040;28;45440;-66
2024/01/17 02:05:10;;;;;;;;;29.75;22.50;;;;;3.75;58.95;99129.88;5003578;28;47088;-66
2024/01/17 02:07:37;;;;;;;;;29.50;23.00;;;;;3.73;59.18;99129.03;5020777;28;45235;-66
2024/01/17 02:10:03;;;;;;;;;36.00;22.50;;;;;3.71;59.30;99123.06;5022644;28;48995;-66
2024/01/17 02:12:30;;;;;;;;;27.50;22.50;;;;;3.69;59.26;99121.41;5014362;28;45403;-67
2024/01/17 02:14:55;;;;;;;;;28.00;21.25;;;;;3.68;59.64;99106.75;5039171;28;45521;-66
2024/01/17 02:17:20;;;;;;;;;31.25;24.00;;;;;3.67;59.59;99099.91;5019241;28;46079;-66
2024/01/17 02:19:46;;;;;;;;;28.25;20.00;;;;;3.66;59.87;99087.84;5016414;28;71644;-66
2024/01/17 02:22:11;;;;;;;;;33.25;24.75;;;;;3.68;59.93;99081.72;5031198;28;65886;-66
2024/01/17 02:24:36;;;;;;;;;36.75;26.25;;;;;3.69;60.05;99064.50;5016204;28;65890;-66
2024/01/17 02:27:02;;;;;;;;;26.33;21.00;;;;;3.71;60.27;99054.94;5020781;28;70178;-66
2024/01/17 02:29:28;;;;;;;;;33.00;24.50;;;;;3.72;60.36;99054.03;5033182;28;45420;-66
2024/01/17 02:31:54;;;;;;;;;27.75;20.50;;;;;3.73;60.69;99046.25;5025915;28;45515;-66
2024/01/17 02:34:19;;;;;;;;;30.50;25.75;;;;;3.74;60.63;99036.75;5034327;28;75642;-66
2024/01/17 02:36:45;;;;;;;;;21.75;15.75;;;;;3.74;60.61;99032.44;5012516;28;67539;-66
2024/01/17 02:39:10;;;;;;;;;33.25;23.50;;;;;3.75;60.88;99025.50;5029556;28;45417;-66
2024/01/17 02:41:36;;;;;;;;;39.00;24.75;;;;;3.75;61.16;99017.75;5034941;28;45269;-66
2024/01/17 02:44:01;;;;;;;;;26.00;20.00;;;;;3.77;61.04;99015.97;5028581;28;70952;-66
2024/01/17 02:46:28;;;;;;;;;32.00;23.25;;;;;3.80;61.33;99021.06;5032542;28;45316;-66
2024/01/17 02:48:53;;;;;;;;;29.25;23.50;;;;;3.81;61.57;99009.84;5027475;28;45561;-66
2024/01/17 02:51:18;;;;;;;;;28.75;22.00;;;;;3.84;61.80;99011.47;5019597;28;72026;-66
2024/01/17 02:53:44;;;;;;;;;33.00;26.33;;;;;3.85;61.74;99005.44;5010920;28;73966;-66
2024/01/17 02:56:09;;;;;;;;;27.00;21.00;;;;;3.87;61.72;99001.88;5032184;28;45415;-66
2024/01/17 02:58:34;;;;;;;;;35.00;22.75;;;;;3.89;61.85;98994.09;5014055;28;45424;-66
2024/01/17 03:01:00;;;;;;;;;36.25;24.50;;;;;3.89;61.66;98991.50;5030591;28;45608;-66
2024/01/17 03:03:25;;;;;;;;;28.00;24.75;;;;;3.88;62.03;98987.19;5011667;28;45346;-66
2024/01/17 03:05:50;;;;;;;;;30.25;23.00;;;;;3.85;61.94;98979.56;5033851;28;72190;-67
2024/01/17 03:08:16;;;;;;;;;31.75;24.50;;;;;3.84;62.10;98983.00;5017409;28;68314;-66
2024/01/17 03:10:41;;;;;;;;;28.00;25.75;;;;;3.82;62.56;98975.28;5017489;28;73165;-65
2024/01/17 03:13:08;;;;;;;;;35.00;22.75;;;;;3.85;62.65;98972.63;5025013;28;63825;-66
2024/01/17 03:15:34;;;;;;;;;33.25;22.25;;;;;3.86;62.81;98965.69;5016102;28;45342;-66
2024/01/17 03:18:00;;;;;;;;;30.75;26.25;;;;;3.86;63.09;98952.75;5029391;28;47252;-66
2024/01/17 03:20:25;;;;;;;;;29.00;21.50;;;;;3.81;62.84;98945.16;5039947;28;45625;-66
2024/01/17 03:22:53;;;;;;;;;36.67;26.00;;;;;3.85;63.06;98945.91;5034445;28;74302;-67
2024/01/17 03:25:19;;;;;;;;;24.00;19.00;;;;;3.86;64.06;98945.00;5022593;28;45992;-67
2024/01/17 03:27:44;;;;;;;;;30.25;22.75;;;;;3.83;63.41;98943.38;5020344;28;69285;-67
2024/01/17 03:30:10;;;;;;;;;36.25;25.50;;;;;3.82;63.67;98933.91;5039201;28;45365;-67
2024/01/17 03:32:35;;;;;;;;;32.25;25.00;;;;;3.81;63.64;98929.63;5042283;28;45452;-66
2024/01/17 03:35:01;;;;;;;;;29.25;24.50;;;;;3.83;63.59;98916.66;5015737;28;66815;-66
2024/01/17 03:37:27;;;;;;;;;34.00;24.00;;;;;3.81;64.00;98908.94;5030984;28;45392;-66
2024/01/17 03:39:52;;;;;;;;;24.50;20.75;;;;;3.79;63.87;98900.38;5040245;28;59565;-66
2024/01/17 03:42:17;;;;;;;;;24.00;21.75;;;;;3.74;64.05;98897.06;5026940;28;64080;-66
2024/01/17 03:44:46;;;;;;;;;25.33;20.00;;;;;3.71;64.14;98884.22;5033650;28;73332;-66
2024/01/17 03:47:12;;;;;;;;;33.75;22.50;;;;;3.70;64.80;98872.16;5022212;28;45596;-67
2024/01/17 03:49:38;;;;;;;;;30.50;23.25;;;;;3.72;64.58;98873.81;5041213;28;45540;-66
2024/01/17 03:52:04;;;;;;;;;32.50;24.00;;;;;3.74;64.70;98864.28;5013412;28;46871;-66
2024/01/17 03:54:30;;;;;;;;;30.50;23.50;;;;;3.78;64.98;98852.94;5033971;28;45342;-67
2024/01/17 03:56:55;;;;;;;;;33.67;27.67;;;;;3.79;65.00;98841.69;5024241;28;68851;-67
2024/01/17 03:59:20;;;;;;;;;33.00;25.67;;;;;3.82;64.84;98835.56;5001251;28;72938;-67
2024/01/17 04:01:46;;;;;;;;;29.33;24.00;;;;;3.86;65.23;98831.16;5034510;28;69076;-67
2024/01/17 04:04:12;;;;;;;;;29.00;24.25;;;;;3.85;65.37;98821.72;5013286;28;45416;-67
2024/01/17 04:06:37;;;;;;;;;29.25;21.50;;;;;3.88;65.20;98811.25;5005428;28;70267;-67
2024/01/17 04:09:03;;;;;;;;;28.00;24.00;;;;;3.88;65.39;98806.06;5039869;28;61415;-67
2024/01/17 04:11:28;;;;;;;;;36.00;25.25;;;;;3.86;65.42;98800.09;4999254;28;67183;-67
2024/01/17 04:13:54;;;;;;;;;37.25;26.00;;;;;3.85;65.74;98794.09;5034136;28;45312;-67
2024/01/17 04:16:19;;;;;;;;;29.00;23.50;;;;;3.85;65.59;98783.75;5009404;28;45473;-67
2024/01/17 04:18:45;;;;;;;;;25.33;21.67;;;;;3.87;65.44;98776.78;5022767;28;73353;-67
2024/01/17 04:21:17;;;;;;;;;27.50;26.00;;;;;3.88;65.51;98765.53;5012865;28;45298;-67
2024/01/17 04:23:42;;;;;;;;;29.00;21.75;;;;;3.88;65.77;98751.72;5033449;28;45356;-67
2024/01/17 04:26:08;;;;;;;;;33.00;26.25;;;;;3.87;66.13;98745.72;5038111;28;45455;-67
2024/01/17 04:28:33;;;;;;;;;30.00;20.00;;;;;3.88;65.87;98739.66;5017168;28;57331;-67
2024/01/17 04:31:01;;;;;;;;;31.00;24.00;;;;;3.87;66.00;98722.44;5038631;28;74327;-67
2024/01/17 04:33:27;;;;;;;;;37.75;25.25;;;;;3.88;65.71;98720.69;5018853;28;45514;-67
2024/01/17 04:35:52;;;;;;;;;33.50;23.75;;;;;3.87;66.06;98719.84;5040081;28;56351;-67
2024/01/17 04:38:18;;;;;;;;;30.00;24.00;;;;;3.87;66.01;98708.66;5034688;28;71789;-67
2024/01/17 04:40:43;;;;;;;;;31.25;22.00;;;;;3.85;66.06;98700.94;5040183;28;46010;-66
2024/01/17 04:43:08;;;;;;;;;42.00;28.67;;;;;3.83;66.25;98697.56;5031870;28;71167;-66
2024/01/17 04:45:34;;;;;;;;;29.25;20.75;;;;;3.82;66.66;98690.69;5030337;28;58643;-67
2024/01/17 04:48:00;;;;;;;;;31.75;25.00;;;;;3.84;66.51;98677.69;5021030;28;73399;-67
2024/01/17 04:50:25;;;;;;;;;33.25;25.00;;;;;3.80;66.63;98680.38;5041551;28;45400;-67
2024/01/17 04:52:51;;;;;;;;;22.75;19.50;;;;;3.78;66.48;98666.66;5022952;28;45319;-67
2024/01/17 04:55:16;;;;;;;;;29.25;23.25;;;;;3.78;66.61;98652.88;5005482;28;62604;-67
2024/01/17 04:57:41;;;;;;;;;37.25;25.25;;;;;3.76;66.40;98642.59;5021723;28;59955;-67
2024/01/17 05:00:08;;;;;;;;;23.00;18.00;;;;;3.73;66.54;98636.66;5035469;28;75529;-67
2024/01/17 05:02:34;;;;;;;;;32.25;25.50;;;;;3.70;66.66;98629.88;5035433;28;45934;-66
2024/01/17 05:04:59;;;;;;;;;26.75;21.00;;;;;3.69;67.65;98617.81;5031704;28;45847;-67
2024/01/17 05:07:24;;;;;;;;;29.75;25.50;;;;;3.69;66.98;98624.75;5022508;28;45281;-67
2024/01/17 05:09:50;;;;;;;;;24.00;19.75;;;;;3.67;67.15;98619.63;5038625;28;72277;-67
2024/01/17 05:12:15;;;;;;;;;25.50;20.00;;;;;3.65;67.08;98626.59;5015736;28;73152;-68
2024/01/17 05:14:41;;;;;;;;;27.00;22.00;;;;;3.65;67.43;98631.75;5007702;28;45405;-67
2024/01/17 05:17:07;;;;;;;;;26.00;21.25;;;;;3.67;67.50;98637.72;5027750;28;45308;-68
2024/01/17 05:19:32;;;;;;;;;25.00;21.33;;;;;3.69;67.59;98635.94;5035989;28;75538;-68
2024/01/17 05:21:58;;;;;;;;;27.25;20.75;;;;;3.71;67.47;98628.94;5039801;28;50214;-67
2024/01/17 05:24:23;;;;;;;;;24.00;23.00;;;;;3.76;67.79;98631.41;5014223;28;45452;-67
2024/01/17 05:26:48;;;;;;;;;24.25;21.00;;;;;3.79;67.68;98626.13;5022428;28;45456;-67
2024/01/17 05:29:14;;;;;;;;;31.50;22.00;;;;;3.81;67.67;98616.56;5016272;28;45385;-68
2024/01/17 05:31:39;;;;;;;;;24.50;18.25;;;;;3.83;67.75;98617.38;5014559;28;45359;-67
2024/01/17 05:34:04;;;;;;;;;28.25;21.50;;;;;3.82;67.99;98617.41;5040115;28;45316;-67
2024/01/17 05:36:30;;;;;;;;;31.25;23.25;;;;;3.85;68.15;98604.38;5036297;28;72613;-68
2024/01/17 05:38:55;;;;;;;;;31.25;21.00;;;;;3.87;68.08;98603.41;5021150;28;46101;-67
2024/01/17 05:41:21;;;;;;;;;25.25;21.00;;;;;3.89;68.18;98583.50;5031402;28;45418;-67
2024/01/17 05:43:46;;;;;;;;;23.33;18.33;;;;;3.91;67.85;98578.28;5029083;28;65496;-66
2024/01/17 05:46:11;;;;;;;;;29.75;21.75;;;;;3.91;68.24;98565.34;5027161;28;58707;-67
2024/01/17 05:48:37;;;;;;;;;30.50;19.50;;;;;3.92;68.39;98557.53;5033233;28;45371;-67
2024/01/17 05:51:02;;;;;;;;;24.25;18.25;;;;;3.93;68.57;98558.38;5039695;28;63970;-67
2024/01/17 05:53:28;;;;;;;;;23.00;19.75;;;;;3.94;68.59;98540.19;5027499;28;45537;-67
2024/01/17 05:55:53;;;;;;;;;19.50;18.75;;;;;3.95;68.85;98531.56;5039519;28;45246;-66
2024/01/17 05:58:19;;;;;;;;;21.25;20.00;;;;;3.96;68.64;98534.97;5027184;28;45400;-66
2024/01/17 06:00:44;;;;;;;;;25.00;19.25;;;;;3.97;68.60;98523.75;5038443;28;45395;-67
2024/01/17 06:03:10;;;;;;;;;15.50;14.75;;;;;3.97;68.79;98523.75;5036612;28;45295;-67
2024/01/17 06:05:35;;;;;;;;;24.50;16.25;;;;;3.97;68.72;98514.22;5039746;28;45163;-67
2024/01/17 06:08:01;;;;;;;;;26.50;20.50;;;;;4.01;68.69;98508.94;5032939;28;46678;-66
2024/01/17 06:10:28;;;;;;;;;30.25;21.75;;;;;4.01;68.75;98509.78;5038570;28;73040;-66
2024/01/17 06:12:53;;;;;;;;;25.00;19.50;;;;;4.02;69.33;98493.38;5018480;28;45650;-67
2024/01/17 06:15:19;;;;;;;;;23.75;19.25;;;;;4.03;69.16;98479.50;5020100;28;45449;-67
2024/01/17 06:17:44;;;;;;;;;28.75;18.50;;;;;4.06;69.08;98482.00;5036949;28;45416;-67
2024/01/17 06:20:11;;;;;;;;;18.00;16.75;;;;;4.07;69.27;98472.47;5002192;28;45574;-67
2024/01/17 06:22:36;;;;;;;;;20.75;18.25;;;;;4.09;69.06;98458.59;5022133;28;45325;-66
2024/01/17 06:25:02;;;;;;;;;22.00;19.25;;;;;4.11;69.23;98449.03;5031489;28;45397;-67
2024/01/17 06:27:28;;;;;;;;;26.25;21.00;;;;;4.12;69.34;98440.34;5034081;28;45402;-66
2024/01/17 06:29:53;;;;;;;;;25.25;19.75;;;;;4.14;69.34;98435.97;5025827;28;65716;-67
2024/01/17 06:32:18;;;;;;;;;22.25;20.00;;;;;4.14;69.46;98435.09;5032671;28;45483;-66
2024/01/17 06:34:44;;;;;;;;;30.25;21.25;;;;;4.13;69.07;98426.50;5030315;28;71590;-66
2024/01/17 06:37:09;;;;;;;;;28.00;20.25;;;;;4.13;69.29;98429.09;5027725;28;45491;-66
2024/01/17 06:39:34;;;;;;;;;28.75;17.00;;;;;4.10;69.60;98408.50;5032386;28;45511;-67
2024/01/17 06:42:00;;;;;;;;;24.75;18.50;;;;;4.08;69.48;98405.13;5014291;28;45460;-69
2024/01/17 06:44:27;;;;;;;;;33.75;20.25;;;;;4.08;69.52;98393.94;5026406;28;51265;-68
2024/01/17 06:46:52;;;;;;;;;25.25;20.25;;;;;4.07;69.75;98395.69;5020610;28;47016;-65
2024/01/17 06:49:17;;;;;;;;;31.67;26.00;;;;;4.05;69.74;98394.06;5004082;28;71818;-65
2024/01/17 06:51:43;;;;;;;;;24.00;20.50;;;;;4.01;69.77;98382.97;5030011;28;69426;-68
2024/01/17 06:54:09;;;;;;;;;25.50;20.75;;;;;4.00;69.89;98383.88;5038250;28;67530;-67
2024/01/17 06:56:36;;;;;;;;;29.00;21.25;;;;;3.98;70.10;98364.97;5042458;28;45467;-67
2024/01/17 06:59:01;;;;;;;;;29.75;21.75;;;;;3.99;69.95;98359.75;5017400;28;45478;-67
2024/01/17 07:01:26;;;;;;;;;31.50;21.25;;;;;3.97;69.43;98369.31;5042272;28;45689;-67
2024/01/17 07:03:52;;;;;;;;;18.75;16.50;;;;;3.91;70.24;98358.34;5042382;28;46957;-67
2024/01/17 07:06:17;;;;;;;;;29.75;22.75;;;;;3.86;70.18;98358.53;5040121;28;59608;-69
2024/01/17 07:08:43;;;;;;;;;24.25;19.25;;;;;3.87;70.67;98367.13;5040705;28;45480;-68
2024/01/17 07:11:10;;;;;;;;;24.25;20.25;;;;;3.85;70.23;98368.94;5025744;28;45357;-75
2024/01/17 07:13:36;;;;;;;;;8.00;5.00;;;;;3.84;70.53;98362.06;5034926;28;45458;-70
2024/01/17 07:16:03;;;;;;;;;32.50;24.00;;;;;3.86;70.77;98366.31;5035382;28;46489;-68
2024/01/17 07:18:28;;;;;;;;;25.50;22.00;;;;;3.87;70.53;98367.13;5036940;28;45306;-67
2024/01/17 07:20:54;;;;;;;;;25.25;21.75;;;;;3.84;70.73;98357.72;5020765;28;57407;-65
2024/01/17 07:23:19;;;;;;;;;26.50;20.00;;;;;3.82;70.53;98349.19;5033543;28;45737;-67
2024/01/17 07:25:44;;;;;;;;;25.00;17.67;;;;;3.80;71.34;98338.06;5014883;28;75081;-67
2024/01/17 07:28:09;;;;;;;;;29.00;20.25;;;;;3.79;71.16;98319.13;5022096;28;45409;-67
2024/01/17 07:30:35;;;;;;;;;25.75;20.25;;;;;3.80;70.96;98310.44;5038275;28;66529;-66
2024/01/17 07:33:00;;;;;;;;;21.00;16.50;;;;;3.78;74.13;98317.41;5020609;28;45389;-65
2024/01/17 07:35:26;;;;;;;;;17.75;16.00;;;;;3.79;71.17;98302.75;5038750;28;57281;-66
2024/01/17 07:37:51;;;;;;;;;22.75;16.25;;;;;3.78;71.93;98309.66;5026308;28;53871;-67
2024/01/17 07:40:17;;;;;;;;;30.75;24.50;;;;;3.78;71.62;98307.06;5022179;28;45415;-65
2024/01/17 07:42:43;;;;;;;;;28.25;17.50;;;;;3.83;71.95;98326.78;5035309;28;45361;-67
2024/01/17 07:45:08;;;;;;;;;19.50;16.00;;;;;3.84;73.06;98295.63;5034793;28;46002;-66
2024/01/17 07:47:34;;;;;;;;;23.75;19.25;;;;;3.85;73.10;98281.81;5008479;28;45360;-66
2024/01/17 07:49:59;;;;;;;;;24.25;19.50;;;;;3.88;72.47;98271.34;5031280;28;45466;-66
2024/01/17 07:52:25;;;;;;;;;25.50;19.50;;;;;3.91;72.39;98249.69;5038402;28;45311;-67
2024/01/17 07:54:50;;;;;;;;;21.25;16.00;;;;;3.96;72.16;98227.06;5036541;28;45460;-66
2024/01/17 07:57:16;;;;;;;;;20.25;15.25;;;;;3.96;72.37;98253.75;5020128;28;66860;-66
2024/01/17 07:59:41;;;;;;;;;21.00;18.75;;;;;3.96;71.65;98253.75;5030624;28;49102;-65
2024/01/17 08:02:07;;;;;;;;;19.50;17.25;;;;;3.95;72.57;98252.09;5010687;28;45203;-64
2024/01/17 08:04:32;;;;;;;;;22.75;19.50;;;;;3.91;72.38;98279.00;5014433;28;47004;-62
2024/01/17 08:06:57;;;;;;;;;27.00;15.00;;;;;3.93;72.57;98297.03;5009131;28;72110;-60
2024/01/17 08:09:26;;;;;;;;;20.67;16.67;;;;;3.96;73.02;98274.47;5039910;28;69326;-61
2024/01/17 08:11:52;;;;;;;;;22.00;18.75;;;;;3.99;72.44;98257.97;5030114;28;45551;-61
2024/01/17 08:14:18;;;;;;;;;21.75;17.25;;;;;4.02;72.87;98257.88;5035507;28;45642;-62
2024/01/17 08:16:44;;;;;;;;;16.75;16.00;;;;;4.06;72.39;98238.72;5028354;28;45448;-66
2024/01/17 08:19:10;;;;;;;;;15.50;15.00;;;;;4.10;72.40;98232.50;5024026;28;45330;-63
2024/01/17 08:21:35;;;;;;;;;23.50;19.50;;;;;4.10;72.42;98214.38;5021463;28;45564;-63
2024/01/17 08:24:01;;;;;;;;;14.75;11.75;;;;;4.14;72.67;98202.16;5033561;28;46532;-62
2024/01/17 08:26:26;;;;;;;;;27.00;14.75;;;;;4.16;72.43;98193.44;5028331;28;69679;-63
2024/01/17 08:28:52;;;;;;;;;25.25;19.00;;;;;4.20;72.66;98191.56;5017839;28;46284;-64
2024/01/17 08:31:17;;;;;;;;;17.00;16.00;;;;;4.21;72.12;98172.53;5034449;28;45207;-61
2024/01/17 08:33:42;;;;;;;;;20.25;14.00;;;;;4.24;72.01;98184.50;5021107;28;63372;-70
2024/01/17 08:36:08;;;;;;;;;26.25;15.75;;;;;4.22;72.60;98176.81;5028733;28;45302;-66
2024/01/17 08:38:34;;;;;;;;;20.25;16.00;;;;;4.18;72.22;98178.69;5032394;28;62488;-64
2024/01/17 08:40:59;;;;;;;;;21.25;16.25;;;;;4.19;71.87;98182.94;5014425;28;45533;-61
2024/01/17 08:43:25;;;;;;;;;20.50;15.75;;;;;4.18;72.75;98164.91;5026425;28;45877;-63
2024/01/17 08:45:50;;;;;;;;;17.25;14.50;;;;;4.19;73.09;98158.81;5021785;28;66791;-62
2024/01/17 08:48:15;;;;;;;;;18.00;14.75;;;;;4.18;72.82;98150.22;5021099;28;62994;-62
2024/01/17 08:50:41;;;;;;;;;19.00;16.75;;;;;4.20;72.83;98144.97;5033621;28;45362;-62
2024/01/17 08:53:06;;;;;;;;;8.75;6.25;;;;;4.21;72.42;98148.38;5008845;28;56774;-62
2024/01/17 08:55:32;;;;;;;;;20.00;15.75;;;;;4.18;72.35;98142.44;5029986;28;45421;-63
2024/01/17 08:57:57;;;;;;;;;16.75;14.75;;;;;4.18;71.93;98134.69;5022045;28;45369;-62
2024/01/17 09:00:23;;;;;;;;;21.00;14.25;;;;;4.14;72.76;98129.69;5026630;28;66528;-63
2024/01/17 09:02:48;;;;;;;;;24.75;15.50;;;;;4.12;74.48;98127.16;5034227;28;75717;-62
2024/01/17 09:05:13;;;;;;;;;16.67;14.67;;;;;4.09;72.80;98116.09;5038078;28;72187;-63
2024/01/17 09:07:43;;;;;;;;;19.50;15.00;;;;;4.11;73.20;98106.56;5017634;28;45421;-62
2024/01/17 09:10:09;;;;;;;;;23.00;15.75;;;;;4.11;72.99;98111.72;5033056;28;45440;-63
2024/01/17 09:12:34;;;;;;;;;14.50;11.25;;;;;4.10;73.09;98103.09;5018153;28;46344;-61
2024/01/17 09:15:00;;;;;;;;;16.50;13.00;;;;;4.10;73.53;98095.34;5027383;28;69656;-63
2024/01/17 09:17:25;;;;;;;;;21.25;17.25;;;;;4.11;73.40;98086.69;5028376;28;61734;-60
2024/01/17 09:19:50;;;;;;;;;15.00;12.00;;;;;4.11;74.16;98086.69;5038441;28;70407;-61
2024/01/17 09:22:16;;;;;;;;;22.25;13.25;;;;;4.11;73.48;98089.25;5035106;28;45803;-62
2024/01/17 09:24:41;;;;;;;;;24.00;16.50;;;;;4.12;74.26;98071.97;5020430;28;45373;-62
2024/01/17 09:27:07;;;;;;;;;18.00;14.00;;;;;4.14;74.52;98083.97;5009489;28;45307;-63
2024/01/17 09:29:33;;;;;;;;;22.25;16.75;;;;;4.22;74.45;98072.44;5033343;28;45490;-63
2024/01/17 09:31:59;;;;;;;;;19.50;13.50;;;;;4.26;74.40;98066.19;5008334;28;46146;-66
2024/01/17 09:34:24;;;;;;;;;17.75;12.50;;;;;4.30;74.32;98066.00;5032763;28;45779;-64
2024/01/17 09:37:00;;;;;;;;;20.00;16.75;;;;;4.34;73.72;98067.53;5110527;27;46141;-64
2024/01/17 09:39:28;;;;;;;;;18.75;13.75;;;;;4.37;73.99;98063.97;5076142;27;45996;-67
2024/01/17 09:41:53;;;;;;;;;17.25;14.50;;;;;4.42;73.88;98062.00;5094912;27;45386;-62
2024/01/17 09:44:19;;;;;;;;;16.25;14.75;;;;;4.45;73.59;98063.63;5093703;27;45370;-61
2024/01/17 09:46:45;;;;;;;;;15.00;13.00;;;;;4.46;73.19;98060.97;5093723;27;78008;-62
2024/01/17 09:49:11;;;;;;;;;15.75;12.75;;;;;4.47;73.50;98056.63;5091225;27;45903;-62
2024/01/17 09:51:37;;;;;;;;;14.25;14.00;;;;;4.44;73.34;98046.41;5091753;27;45413;-62
2024/01/17 09:54:04;;;;;;;;;16.75;13.50;;;;;4.46;73.68;98054.94;5088066;27;45307;-63
2024/01/17 09:56:31;;;;;;;;;12.50;9.00;;;;;4.46;73.84;98053.22;5090458;27;45332;-64
2024/01/17 09:59:00;;;;;;;;;12.75;12.00;;;;;4.45;74.03;98041.16;5092171;27;46144;-64
2024/01/17 10:01:27;;;;;;;;;18.25;12.00;;;;;4.50;74.12;98043.56;5088566;27;45461;-64
2024/01/17 10:03:54;;;;;;;;;19.25;13.00;;;;;4.52;74.19;98054.69;5090345;27;45527;-65
2024/01/17 10:06:20;;;;;;;;;13.25;10.50;;;;;4.55;74.06;98037.25;5121251;27;45490;-62
2024/01/17 10:08:47;;;;;;;;;17.50;10.00;;;;;4.54;74.38;98026.97;5093702;27;70208;-62
2024/01/17 10:11:13;;;;;;;;;15.25;11.75;;;;;4.49;74.72;98047.88;5098363;27;45420;-62
2024/01/17 10:13:38;;;;;;;;;9.50;8.00;;;;;4.48;74.86;98042.75;5073972;27;45422;-64
2024/01/17 10:16:04;;;;;;;;;22.50;14.75;;;;;4.48;74.52;98011.69;5082593;27;57400;-62
2024/01/17 10:18:31;;;;;;;;;66.75;50.50;;;;;4.47;75.13;98003.09;5091701;27;45548;-63
2024/01/17 10:20:56;;;;;;;;;21.25;13.00;;;;;4.49;74.36;98000.44;5085579;27;45425;-63
2024/01/17 10:23:24;;;;;;;;;14.00;12.75;;;;;4.47;74.42;98010.03;5092463;27;71959;-63
2024/01/17 10:25:51;;;;;;;;;12.50;10.25;;;;;4.44;74.39;97995.44;5111505;27;45292;-65
2024/01/17 10:28:16;;;;;;;;;16.00;11.75;;;;;4.44;75.08;97953.19;5083665;27;45227;-65
2024/01/17 10:30:42;;;;;;;;;21.75;16.00;;;;;4.46;75.20;97962.59;5093779;27;64434;-65
2024/01/17 10:33:08;;;;;;;;;10.50;10.50;;;;;4.45;76.78;97963.47;5093610;27;45453;-62
2024/01/17 10:35:33;;;;;;;;;15.50;12.00;;;;;4.46;75.15;97966.91;5085135;27;46132;-63
2024/01/17 10:37:59;;;;;;;;;51.25;39.00;;;;;4.51;75.18;97967.53;5089035;27;45378;-63
2024/01/17 10:40:25;;;;;;;;;21.00;15.00;;;;;4.53;75.57;97961.38;5091981;27;45465;-63
2024/01/17 10:43:09;;;;;;;;;16.50;14.00;;;;;4.58;77.08;97966.31;5083672;27;45561;-63
2024/01/17 10:45:36;;;;;;;;;18.25;12.50;;;;;4.63;77.59;97948.00;5097366;27;46237;-63
2024/01/17 10:48:01;;;;;;;;;16.25;14.75;;;;;4.66;75.71;97946.09;5082521;27;45994;-64
2024/01/17 10:50:27;;;;;;;;;21.25;14.00;;;;;4.72;75.33;97950.97;5078475;27;53635;-63
2024/01/17 10:52:53;;;;;;;;;19.00;15.25;;;;;4.74;74.78;97963.84;5063281;28;45438;-63
2024/01/17 10:55:21;;;;;;;;;15.75;12.00;;;;;4.69;74.64;97938.19;5084313;27;45517;-63
2024/01/17 10:57:49;;;;;;;;;22.00;18.75;;;;;4.64;74.88;97934.09;5099450;27;45306;-65
2024/01/17 11:00:17;;;;;;;;;13.50;10.00;;;;;4.59;74.49;97947.28;5076032;28;45541;-62
2024/01/17 11:02:43;;;;;;;;;20.00;16.00;;;;;4.56;74.96;97950.03;5066094;27;45483;-62
2024/01/17 11:05:15;;;;;;;;;15.25;11.75;;;;;4.55;74.62;97918.13;5079371;27;45531;-63
2024/01/17 11:07:41;;;;;;;;;79.00;58.00;;;;;4.51;75.21;97928.69;5075947;27;46057;-65
2024/01/17 11:10:07;;;;;;;;;19.50;16.25;;;;;4.50;74.73;97952.91;5070483;27;45385;-66
2024/01/17 11:12:35;;;;;;;;;12.00;8.00;;;;;4.47;74.71;97914.22;5070250;28;45335;-68
2024/01/17 11:15:01;;;;;;;;;21.25;17.25;;;;;4.44;75.98;97951.44;5080426;28;46554;-70
2024/01/17 11:17:28;;;;;;;;;15.50;15.00;;;;;4.46;75.78;97894.41;5088164;27;45197;-74